sensor_id;sensor_type;location;lat;lon;timestamp;P1;durP1;ratioP1;P2;durP2;ratioP2
78122;SDS011;67376;44.802;10.332;2023-05-19T00:00:47;2.58;;;1.65;;
78122;SDS011;67376;44.802;10.332;2023-05-19T00:03:13;1.85;;;1.40;;
78122;SDS011;67376;44.802;10.332;2023-05-19T00:05:39;2.80;;;1.92;;
78122;SDS011;67376;44.802;10.332;2023-05-19T00:08:09;2.30;;;1.60;;
78122;SDS011;67376;44.802;10.332;2023-05-19T00:10:35;2.75;;;1.70;;
78122;SDS011;67376;44.802;10.332;2023-05-19T00:13:01;5.65;;;3.00;;
78122;SDS011;67376;44.802;10.332;2023-05-19T00:15:26;2.38;;;1.70;;
78122;SDS011;67376;44.802;10.332;2023-05-19T00:17:52;2.35;;;1.85;;
78122;SDS011;67376;44.802;10.332;2023-05-19T00:20:19;2.20;;;1.90;;
78122;SDS011;67376;44.802;10.332;2023-05-19T00:22:45;2.95;;;1.80;;
78122;SDS011;67376;44.802;10.332;2023-05-19T00:25:11;2.28;;;1.65;;
78122;SDS011;67376;44.802;10.332;2023-05-19T00:27:36;5.63;;;1.95;;
78122;SDS011;67376;44.802;10.332;2023-05-19T00:30:02;3.05;;;1.90;;
78122;SDS011;67376;44.802;10.332;2023-05-19T00:32:27;4.95;;;1.80;;
78122;SDS011;67376;44.802;10.332;2023-05-19T00:34:53;2.92;;;1.73;;
78122;SDS011;67376;44.802;10.332;2023-05-19T00:37:18;2.17;;;1.80;;
78122;SDS011;67376;44.802;10.332;2023-05-19T00:39:44;2.70;;;1.67;;
78122;SDS011;67376;44.802;10.332;2023-05-19T00:42:09;3.08;;;2.03;;
78122;SDS011;67376;44.802;10.332;2023-05-19T00:44:39;4.25;;;2.22;;
78122;SDS011;67376;44.802;10.332;2023-05-19T00:47:05;3.05;;;1.92;;
78122;SDS011;67376;44.802;10.332;2023-05-19T00:49:31;2.95;;;1.65;;
78122;SDS011;67376;44.802;10.332;2023-05-19T00:51:56;2.75;;;1.63;;
78122;SDS011;67376;44.802;10.332;2023-05-19T00:54:22;4.75;;;1.98;;
78122;SDS011;67376;44.802;10.332;2023-05-19T00:56:48;3.83;;;1.85;;
78122;SDS011;67376;44.802;10.332;2023-05-19T00:59:14;5.55;;;1.88;;
78122;SDS011;67376;44.802;10.332;2023-05-19T01:01:40;2.33;;;1.63;;
78122;SDS011;67376;44.802;10.332;2023-05-19T01:04:05;2.63;;;1.80;;
78122;SDS011;67376;44.802;10.332;2023-05-19T01:06:34;2.30;;;1.52;;
78122;SDS011;67376;44.802;10.332;2023-05-19T01:09:03;2.22;;;1.70;;
78122;SDS011;67376;44.802;10.332;2023-05-19T01:11:28;3.00;;;1.98;;
78122;SDS011;67376;44.802;10.332;2023-05-19T01:13:54;2.03;;;1.60;;
78122;SDS011;67376;44.802;10.332;2023-05-19T01:19:00;2.33;;;1.90;;
78122;SDS011;67376;44.802;10.332;2023-05-19T01:32:37;3.25;;;1.83;;
78122;SDS011;67376;44.802;10.332;2023-05-19T01:35:05;4.70;;;2.03;;
78122;SDS011;67376;44.802;10.332;2023-05-19T01:37:33;2.80;;;1.90;;
78122;SDS011;67376;44.802;10.332;2023-05-19T01:39:59;3.13;;;1.92;;
78122;SDS011;67376;44.802;10.332;2023-05-19T01:42:25;4.10;;;1.90;;
78122;SDS011;67376;44.802;10.332;2023-05-19T01:44:51;2.75;;;1.80;;
78122;SDS011;67376;44.802;10.332;2023-05-19T01:47:18;4.38;;;1.90;;
78122;SDS011;67376;44.802;10.332;2023-05-19T01:49:43;2.95;;;1.88;;
78122;SDS011;67376;44.802;10.332;2023-05-19T01:52:09;2.50;;;1.80;;
78122;SDS011;67376;44.802;10.332;2023-05-19T01:54:34;3.63;;;2.10;;
78122;SDS011;67376;44.802;10.332;2023-05-19T01:57:15;5.15;;;1.90;;
78122;SDS011;67376;44.802;10.332;2023-05-19T02:00:12;3.00;;;1.92;;
78122;SDS011;67376;44.802;10.332;2023-05-19T02:08:23;3.65;;;1.73;;
78122;SDS011;67376;44.802;10.332;2023-05-19T02:10:55;3.72;;;2.20;;
78122;SDS011;67376;44.802;10.332;2023-05-19T02:13:26;4.57;;;1.80;;
78122;SDS011;67376;44.802;10.332;2023-05-19T02:16:00;3.28;;;1.90;;
78122;SDS011;67376;44.802;10.332;2023-05-19T02:18:28;3.65;;;1.83;;
78122;SDS011;67376;44.802;10.332;2023-05-19T02:20:54;3.90;;;2.00;;
78122;SDS011;67376;44.802;10.332;2023-05-19T02:23:20;3.67;;;2.30;;
78122;SDS011;67376;44.802;10.332;2023-05-19T02:25:45;3.45;;;2.10;;
78122;SDS011;67376;44.802;10.332;2023-05-19T02:28:10;3.08;;;1.88;;
78122;SDS011;67376;44.802;10.332;2023-05-19T02:30:36;2.35;;;1.75;;
78122;SDS011;67376;44.802;10.332;2023-05-19T02:33:01;2.85;;;1.80;;
78122;SDS011;67376;44.802;10.332;2023-05-19T02:35:26;3.33;;;1.98;;
78122;SDS011;67376;44.802;10.332;2023-05-19T02:37:52;3.03;;;1.83;;
78122;SDS011;67376;44.802;10.332;2023-05-19T02:40:18;3.80;;;2.13;;
78122;SDS011;67376;44.802;10.332;2023-05-19T02:42:43;2.90;;;1.83;;
78122;SDS011;67376;44.802;10.332;2023-05-19T02:45:09;2.88;;;1.83;;
78122;SDS011;67376;44.802;10.332;2023-05-19T02:47:34;4.05;;;2.22;;
78122;SDS011;67376;44.802;10.332;2023-05-19T02:50:00;2.58;;;1.70;;
78122;SDS011;67376;44.802;10.332;2023-05-19T02:52:25;3.50;;;2.67;;
78122;SDS011;67376;44.802;10.332;2023-05-19T02:54:51;4.53;;;2.13;;
78122;SDS011;67376;44.802;10.332;2023-05-19T02:57:16;3.30;;;1.88;;
78122;SDS011;67376;44.802;10.332;2023-05-19T02:59:41;2.60;;;2.00;;
78122;SDS011;67376;44.802;10.332;2023-05-19T03:02:07;3.63;;;1.83;;
78122;SDS011;67376;44.802;10.332;2023-05-19T03:04:32;4.03;;;2.22;;
78122;SDS011;67376;44.802;10.332;2023-05-19T03:07:06;3.92;;;1.98;;
78122;SDS011;67376;44.802;10.332;2023-05-19T03:09:35;2.50;;;1.73;;
78122;SDS011;67376;44.802;10.332;2023-05-19T03:12:01;2.60;;;1.85;;
78122;SDS011;67376;44.802;10.332;2023-05-19T03:14:28;2.83;;;1.85;;
78122;SDS011;67376;44.802;10.332;2023-05-19T03:16:53;2.80;;;1.95;;
78122;SDS011;67376;44.802;10.332;2023-05-19T03:19:19;4.50;;;2.10;;
78122;SDS011;67376;44.802;10.332;2023-05-19T03:21:45;2.75;;;1.90;;
78122;SDS011;67376;44.802;10.332;2023-05-19T03:24:11;4.00;;;1.67;;
78122;SDS011;67376;44.802;10.332;2023-05-19T03:26:37;2.20;;;1.63;;
78122;SDS011;67376;44.802;10.332;2023-05-19T03:29:02;3.17;;;1.80;;
78122;SDS011;67376;44.802;10.332;2023-05-19T03:31:27;3.63;;;2.05;;
78122;SDS011;67376;44.802;10.332;2023-05-19T03:33:54;2.95;;;1.80;;
78122;SDS011;67376;44.802;10.332;2023-05-19T03:36:22;2.95;;;1.88;;
78122;SDS011;67376;44.802;10.332;2023-05-19T03:38:47;2.55;;;1.70;;
78122;SDS011;67376;44.802;10.332;2023-05-19T03:41:13;2.78;;;1.60;;
78122;SDS011;67376;44.802;10.332;2023-05-19T03:43:39;2.55;;;1.98;;
78122;SDS011;67376;44.802;10.332;2023-05-19T03:46:04;3.50;;;2.33;;
78122;SDS011;67376;44.802;10.332;2023-05-19T03:48:30;2.65;;;1.70;;
78122;SDS011;67376;44.802;10.332;2023-05-19T03:50:55;3.05;;;1.85;;
78122;SDS011;67376;44.802;10.332;2023-05-19T03:53:21;2.38;;;1.67;;
78122;SDS011;67376;44.802;10.332;2023-05-19T03:55:47;2.10;;;1.42;;
78122;SDS011;67376;44.802;10.332;2023-05-19T03:58:13;3.47;;;2.00;;
78122;SDS011;67376;44.802;10.332;2023-05-19T04:00:40;2.78;;;1.75;;
78122;SDS011;67376;44.802;10.332;2023-05-19T04:03:05;4.55;;;1.83;;
78122;SDS011;67376;44.802;10.332;2023-05-19T04:05:32;2.85;;;1.70;;
78122;SDS011;67376;44.802;10.332;2023-05-19T04:07:58;2.90;;;1.70;;
78122;SDS011;67376;44.802;10.332;2023-05-19T04:10:23;3.28;;;1.98;;
78122;SDS011;67376;44.802;10.332;2023-05-19T04:12:49;2.90;;;1.67;;
78122;SDS011;67376;44.802;10.332;2023-05-19T04:15:14;2.40;;;1.55;;
78122;SDS011;67376;44.802;10.332;2023-05-19T04:17:40;3.05;;;1.73;;
78122;SDS011;67376;44.802;10.332;2023-05-19T04:20:06;2.65;;;1.63;;
78122;SDS011;67376;44.802;10.332;2023-05-19T04:22:32;3.45;;;2.00;;
78122;SDS011;67376;44.802;10.332;2023-05-19T04:24:57;2.85;;;1.95;;
78122;SDS011;67376;44.802;10.332;2023-05-19T04:27:23;4.43;;;2.00;;
78122;SDS011;67376;44.802;10.332;2023-05-19T04:29:49;3.88;;;1.88;;
78122;SDS011;67376;44.802;10.332;2023-05-19T04:32:15;2.10;;;1.60;;
78122;SDS011;67376;44.802;10.332;2023-05-19T04:34:43;2.95;;;1.80;;
78122;SDS011;67376;44.802;10.332;2023-05-19T04:37:11;3.00;;;1.90;;
78122;SDS011;67376;44.802;10.332;2023-05-19T04:39:38;2.97;;;1.83;;
78122;SDS011;67376;44.802;10.332;2023-05-19T04:42:07;2.80;;;1.83;;
78122;SDS011;67376;44.802;10.332;2023-05-19T04:44:34;2.40;;;1.65;;
78122;SDS011;67376;44.802;10.332;2023-05-19T04:47:00;2.50;;;1.70;;
78122;SDS011;67376;44.802;10.332;2023-05-19T04:49:25;2.75;;;1.63;;
78122;SDS011;67376;44.802;10.332;2023-05-19T04:51:51;2.47;;;1.70;;
78122;SDS011;67376;44.802;10.332;2023-05-19T04:54:16;3.03;;;1.60;;
78122;SDS011;67376;44.802;10.332;2023-05-19T04:56:42;4.28;;;1.83;;
78122;SDS011;67376;44.802;10.332;2023-05-19T04:59:08;2.75;;;2.00;;
78122;SDS011;67376;44.802;10.332;2023-05-19T05:01:34;4.35;;;1.80;;
78122;SDS011;67376;44.802;10.332;2023-05-19T05:04:04;3.65;;;2.00;;
78122;SDS011;67376;44.802;10.332;2023-05-19T05:06:30;4.22;;;2.17;;
78122;SDS011;67376;44.802;10.332;2023-05-19T05:08:55;3.13;;;2.13;;
78122;SDS011;67376;44.802;10.332;2023-05-19T05:11:21;3.45;;;2.10;;
78122;SDS011;67376;44.802;10.332;2023-05-19T05:13:47;2.90;;;2.00;;
78122;SDS011;67376;44.802;10.332;2023-05-19T05:16:12;2.97;;;1.50;;
78122;SDS011;67376;44.802;10.332;2023-05-19T05:18:38;2.78;;;2.00;;
78122;SDS011;67376;44.802;10.332;2023-05-19T05:21:05;2.33;;;1.85;;
78122;SDS011;67376;44.802;10.332;2023-05-19T05:23:31;3.38;;;1.83;;
78122;SDS011;67376;44.802;10.332;2023-05-19T05:25:56;3.15;;;2.08;;
78122;SDS011;67376;44.802;10.332;2023-05-19T05:28:22;3.25;;;1.95;;
78122;SDS011;67376;44.802;10.332;2023-05-19T05:30:48;2.58;;;1.65;;
78122;SDS011;67376;44.802;10.332;2023-05-19T05:33:14;4.15;;;2.05;;
78122;SDS011;67376;44.802;10.332;2023-05-19T05:35:40;3.28;;;1.83;;
78122;SDS011;67376;44.802;10.332;2023-05-19T05:38:05;4.97;;;2.03;;
78122;SDS011;67376;44.802;10.332;2023-05-19T05:40:32;4.18;;;1.98;;
78122;SDS011;67376;44.802;10.332;2023-05-19T05:42:57;3.63;;;2.20;;
78122;SDS011;67376;44.802;10.332;2023-05-19T05:45:25;4.63;;;1.90;;
78122;SDS011;67376;44.802;10.332;2023-05-19T05:47:51;2.70;;;1.83;;
78122;SDS011;67376;44.802;10.332;2023-05-19T05:50:16;2.70;;;1.92;;
78122;SDS011;67376;44.802;10.332;2023-05-19T05:52:46;4.97;;;1.85;;
78122;SDS011;67376;44.802;10.332;2023-05-19T05:55:12;3.00;;;1.52;;
78122;SDS011;67376;44.802;10.332;2023-05-19T05:57:38;2.78;;;2.00;;
78122;SDS011;67376;44.802;10.332;2023-05-19T06:00:06;3.20;;;2.10;;
78122;SDS011;67376;44.802;10.332;2023-05-19T06:02:38;2.78;;;1.80;;
78122;SDS011;67376;44.802;10.332;2023-05-19T06:05:03;3.05;;;2.10;;
78122;SDS011;67376;44.802;10.332;2023-05-19T06:07:29;1.42;;;1.33;;
78122;SDS011;67376;44.802;10.332;2023-05-19T06:09:55;2.95;;;1.75;;
78122;SDS011;67376;44.802;10.332;2023-05-19T06:12:20;4.45;;;1.60;;
78122;SDS011;67376;44.802;10.332;2023-05-19T06:14:46;3.58;;;1.85;;
78122;SDS011;67376;44.802;10.332;2023-05-19T06:17:12;2.80;;;1.80;;
78122;SDS011;67376;44.802;10.332;2023-05-19T06:19:37;2.47;;;1.60;;
78122;SDS011;67376;44.802;10.332;2023-05-19T06:22:02;2.70;;;1.80;;
78122;SDS011;67376;44.802;10.332;2023-05-19T06:24:28;5.43;;;2.08;;
78122;SDS011;67376;44.802;10.332;2023-05-19T06:26:53;3.15;;;1.75;;
78122;SDS011;67376;44.802;10.332;2023-05-19T06:29:19;2.95;;;1.70;;
78122;SDS011;67376;44.802;10.332;2023-05-19T06:31:44;3.17;;;1.92;;
78122;SDS011;67376;44.802;10.332;2023-05-19T06:34:10;2.65;;;1.98;;
78122;SDS011;67376;44.802;10.332;2023-05-19T06:36:36;2.67;;;1.90;;
78122;SDS011;67376;44.802;10.332;2023-05-19T06:39:01;2.92;;;1.70;;
78122;SDS011;67376;44.802;10.332;2023-05-19T06:41:27;2.15;;;1.65;;
78122;SDS011;67376;44.802;10.332;2023-05-19T06:43:52;2.67;;;1.95;;
78122;SDS011;67376;44.802;10.332;2023-05-19T06:46:18;2.33;;;1.63;;
78122;SDS011;67376;44.802;10.332;2023-05-19T06:48:43;2.72;;;1.80;;
78122;SDS011;67376;44.802;10.332;2023-05-19T06:51:09;2.55;;;1.83;;
78122;SDS011;67376;44.802;10.332;2023-05-19T06:53:34;2.25;;;1.63;;
78122;SDS011;67376;44.802;10.332;2023-05-19T06:56:00;3.03;;;1.90;;
78122;SDS011;67376;44.802;10.332;2023-05-19T06:58:25;2.75;;;1.73;;
78122;SDS011;67376;44.802;10.332;2023-05-19T07:00:51;2.72;;;1.98;;
78122;SDS011;67376;44.802;10.332;2023-05-19T07:03:16;2.83;;;1.80;;
78122;SDS011;67376;44.802;10.332;2023-05-19T07:05:41;2.13;;;1.63;;
78122;SDS011;67376;44.802;10.332;2023-05-19T07:08:07;2.90;;;1.90;;
78122;SDS011;67376;44.802;10.332;2023-05-19T07:10:32;3.80;;;1.75;;
78122;SDS011;67376;44.802;10.332;2023-05-19T07:12:57;2.28;;;1.70;;
78122;SDS011;67376;44.802;10.332;2023-05-19T07:15:23;3.22;;;2.47;;
78122;SDS011;67376;44.802;10.332;2023-05-19T07:17:48;2.85;;;2.05;;
78122;SDS011;67376;44.802;10.332;2023-05-19T07:20:14;1.63;;;1.52;;
78122;SDS011;67376;44.802;10.332;2023-05-19T07:22:39;3.83;;;2.00;;
78122;SDS011;67376;44.802;10.332;2023-05-19T07:25:07;2.30;;;1.63;;
78122;SDS011;67376;44.802;10.332;2023-05-19T07:27:33;3.15;;;2.00;;
78122;SDS011;67376;44.802;10.332;2023-05-19T07:29:58;1.83;;;1.67;;
78122;SDS011;67376;44.802;10.332;2023-05-19T07:32:24;2.58;;;1.80;;
78122;SDS011;67376;44.802;10.332;2023-05-19T07:34:49;4.10;;;2.15;;
78122;SDS011;67376;44.802;10.332;2023-05-19T07:37:15;3.45;;;1.90;;
78122;SDS011;67376;44.802;10.332;2023-05-19T07:39:40;3.25;;;1.92;;
78122;SDS011;67376;44.802;10.332;2023-05-19T07:42:06;2.80;;;1.70;;
78122;SDS011;67376;44.802;10.332;2023-05-19T07:44:31;3.65;;;2.10;;
78122;SDS011;67376;44.802;10.332;2023-05-19T07:46:57;4.05;;;1.95;;
78122;SDS011;67376;44.802;10.332;2023-05-19T07:49:22;3.10;;;2.08;;
78122;SDS011;67376;44.802;10.332;2023-05-19T07:51:47;3.10;;;1.85;;
78122;SDS011;67376;44.802;10.332;2023-05-19T07:54:13;3.42;;;1.88;;
78122;SDS011;67376;44.802;10.332;2023-05-19T07:56:38;3.75;;;2.00;;
78122;SDS011;67376;44.802;10.332;2023-05-19T07:59:04;3.53;;;2.22;;
78122;SDS011;67376;44.802;10.332;2023-05-19T08:01:31;4.38;;;2.67;;
78122;SDS011;67376;44.802;10.332;2023-05-19T08:03:57;4.03;;;2.17;;
78122;SDS011;67376;44.802;10.332;2023-05-19T08:06:23;3.05;;;2.05;;
78122;SDS011;67376;44.802;10.332;2023-05-19T08:08:49;4.70;;;1.83;;
78122;SDS011;67376;44.802;10.332;2023-05-19T08:11:14;2.63;;;2.15;;
78122;SDS011;67376;44.802;10.332;2023-05-19T08:13:40;2.95;;;2.00;;
78122;SDS011;67376;44.802;10.332;2023-05-19T08:16:05;2.35;;;1.90;;
78122;SDS011;67376;44.802;10.332;2023-05-19T08:18:31;2.63;;;1.83;;
78122;SDS011;67376;44.802;10.332;2023-05-19T08:20:56;2.53;;;1.98;;
78122;SDS011;67376;44.802;10.332;2023-05-19T08:23:22;2.85;;;1.73;;
78122;SDS011;67376;44.802;10.332;2023-05-19T08:25:47;3.55;;;2.17;;
78122;SDS011;67376;44.802;10.332;2023-05-19T08:28:13;3.13;;;1.95;;
78122;SDS011;67376;44.802;10.332;2023-05-19T08:30:38;3.85;;;2.10;;
78122;SDS011;67376;44.802;10.332;2023-05-19T08:33:04;2.72;;;1.83;;
78122;SDS011;67376;44.802;10.332;2023-05-19T08:35:29;4.82;;;2.00;;
78122;SDS011;67376;44.802;10.332;2023-05-19T08:37:54;3.95;;;2.28;;
78122;SDS011;67376;44.802;10.332;2023-05-19T08:40:21;3.28;;;2.30;;
78122;SDS011;67376;44.802;10.332;2023-05-19T08:42:47;2.42;;;1.85;;
78122;SDS011;67376;44.802;10.332;2023-05-19T08:45:13;4.07;;;2.10;;
78122;SDS011;67376;44.802;10.332;2023-05-19T08:47:40;3.13;;;1.85;;
78122;SDS011;67376;44.802;10.332;2023-05-19T08:50:06;2.65;;;1.80;;
78122;SDS011;67376;44.802;10.332;2023-05-19T08:55:03;3.08;;;2.35;;
78122;SDS011;67376;44.802;10.332;2023-05-19T08:57:33;7.45;;;2.50;;
78122;SDS011;67376;44.802;10.332;2023-05-19T09:00:01;4.28;;;2.05;;
78122;SDS011;67376;44.802;10.332;2023-05-19T09:02:30;2.80;;;2.08;;
78122;SDS011;67376;44.802;10.332;2023-05-19T09:04:57;2.80;;;2.10;;
78122;SDS011;67376;44.802;10.332;2023-05-19T09:07:22;2.78;;;2.00;;
78122;SDS011;67376;44.802;10.332;2023-05-19T09:09:49;3.20;;;2.10;;
78122;SDS011;67376;44.802;10.332;2023-05-19T09:12:15;4.68;;;2.30;;
78122;SDS011;67376;44.802;10.332;2023-05-19T09:14:40;2.63;;;2.13;;
78122;SDS011;67376;44.802;10.332;2023-05-19T09:17:06;2.78;;;1.77;;
78122;SDS011;67376;44.802;10.332;2023-05-19T09:19:31;2.75;;;1.98;;
78122;SDS011;67376;44.802;10.332;2023-05-19T09:21:57;2.97;;;2.00;;
78122;SDS011;67376;44.802;10.332;2023-05-19T09:24:30;2.97;;;2.00;;
78122;SDS011;67376;44.802;10.332;2023-05-19T09:26:57;2.95;;;2.08;;
78122;SDS011;67376;44.802;10.332;2023-05-19T09:29:23;3.10;;;2.00;;
78122;SDS011;67376;44.802;10.332;2023-05-19T09:31:52;3.53;;;1.98;;
78122;SDS011;67376;44.802;10.332;2023-05-19T09:34:25;3.03;;;2.08;;
78122;SDS011;67376;44.802;10.332;2023-05-19T09:36:52;3.47;;;2.13;;
78122;SDS011;67376;44.802;10.332;2023-05-19T09:39:19;3.47;;;1.92;;
78122;SDS011;67376;44.802;10.332;2023-05-19T09:41:46;2.50;;;1.83;;
78122;SDS011;67376;44.802;10.332;2023-05-19T09:44:21;2.58;;;1.95;;
78122;SDS011;67376;44.802;10.332;2023-05-19T09:46:48;3.47;;;2.00;;
78122;SDS011;67376;44.802;10.332;2023-05-19T09:49:20;3.47;;;1.95;;
78122;SDS011;67376;44.802;10.332;2023-05-19T09:51:48;3.20;;;2.20;;
78122;SDS011;67376;44.802;10.332;2023-05-19T09:54:14;3.67;;;2.00;;
78122;SDS011;67376;44.802;10.332;2023-05-19T09:56:40;3.40;;;2.25;;
78122;SDS011;67376;44.802;10.332;2023-05-19T09:59:05;4.85;;;2.20;;
78122;SDS011;67376;44.802;10.332;2023-05-19T10:01:31;3.20;;;1.90;;
78122;SDS011;67376;44.802;10.332;2023-05-19T10:04:01;2.70;;;1.83;;
78122;SDS011;67376;44.802;10.332;2023-05-19T10:06:28;4.45;;;2.13;;
78122;SDS011;67376;44.802;10.332;2023-05-19T10:08:54;2.90;;;2.00;;
78122;SDS011;67376;44.802;10.332;2023-05-19T10:11:21;3.47;;;2.30;;
78122;SDS011;67376;44.802;10.332;2023-05-19T10:13:48;2.60;;;2.00;;
78122;SDS011;67376;44.802;10.332;2023-05-19T10:16:15;3.35;;;2.00;;
78122;SDS011;67376;44.802;10.332;2023-05-19T10:18:42;4.70;;;2.85;;
78122;SDS011;67376;44.802;10.332;2023-05-19T10:21:07;3.75;;;2.40;;
78122;SDS011;67376;44.802;10.332;2023-05-19T10:23:33;4.57;;;2.53;;
78122;SDS011;67376;44.802;10.332;2023-05-19T10:25:59;4.38;;;2.28;;
78122;SDS011;67376;44.802;10.332;2023-05-19T10:28:29;5.18;;;2.55;;
78122;SDS011;67376;44.802;10.332;2023-05-19T10:30:59;4.32;;;2.53;;
78122;SDS011;67376;44.802;10.332;2023-05-19T10:33:33;4.05;;;2.90;;
78122;SDS011;67376;44.802;10.332;2023-05-19T10:36:47;6.20;;;3.00;;
78122;SDS011;67376;44.802;10.332;2023-05-19T10:39:01;6.85;;;2.90;;
78122;SDS011;67376;44.802;10.332;2023-05-19T10:41:34;3.60;;;2.60;;
78122;SDS011;67376;44.802;10.332;2023-05-19T10:46:53;4.28;;;2.88;;
78122;SDS011;67376;44.802;10.332;2023-05-19T10:49:18;5.20;;;2.90;;
78122;SDS011;67376;44.802;10.332;2023-05-19T10:51:45;5.85;;;3.28;;
78122;SDS011;67376;44.802;10.332;2023-05-19T10:54:11;4.65;;;2.45;;
78122;SDS011;67376;44.802;10.332;2023-05-19T10:56:40;5.30;;;3.40;;
78122;SDS011;67376;44.802;10.332;2023-05-19T10:59:28;3.75;;;2.63;;
78122;SDS011;67376;44.802;10.332;2023-05-19T11:01:56;5.88;;;3.42;;
78122;SDS011;67376;44.802;10.332;2023-05-19T11:04:37;10.13;;;3.25;;
78122;SDS011;67376;44.802;10.332;2023-05-19T11:07:04;5.25;;;3.15;;
78122;SDS011;67376;44.802;10.332;2023-05-19T11:09:30;12.65;;;3.38;;
78122;SDS011;67376;44.802;10.332;2023-05-19T11:12:00;8.88;;;3.67;;
78122;SDS011;67376;44.802;10.332;2023-05-19T11:14:27;8.45;;;3.90;;
78122;SDS011;67376;44.802;10.332;2023-05-19T11:16:56;5.72;;;3.35;;
78122;SDS011;67376;44.802;10.332;2023-05-19T11:19:30;4.85;;;3.28;;
78122;SDS011;67376;44.802;10.332;2023-05-19T11:21:56;7.07;;;4.10;;
78122;SDS011;67376;44.802;10.332;2023-05-19T11:24:34;6.60;;;3.50;;
78122;SDS011;67376;44.802;10.332;2023-05-19T11:29:51;6.07;;;3.22;;
78122;SDS011;67376;44.802;10.332;2023-05-19T11:32:21;6.00;;;3.08;;
78122;SDS011;67376;44.802;10.332;2023-05-19T11:34:50;7.70;;;3.67;;
78122;SDS011;67376;44.802;10.332;2023-05-19T11:37:16;6.05;;;3.05;;
78122;SDS011;67376;44.802;10.332;2023-05-19T11:39:42;6.63;;;3.33;;
78122;SDS011;67376;44.802;10.332;2023-05-19T11:42:10;7.72;;;3.10;;
78122;SDS011;67376;44.802;10.332;2023-05-19T11:44:35;4.50;;;2.97;;
78122;SDS011;67376;44.802;10.332;2023-05-19T11:47:02;7.32;;;3.30;;
78122;SDS011;67376;44.802;10.332;2023-05-19T11:49:28;8.02;;;3.05;;
78122;SDS011;67376;44.802;10.332;2023-05-19T11:51:53;6.35;;;3.00;;
78122;SDS011;67376;44.802;10.332;2023-05-19T11:54:19;5.45;;;3.50;;
78122;SDS011;67376;44.802;10.332;2023-05-19T11:56:44;4.63;;;3.17;;
78122;SDS011;67376;44.802;10.332;2023-05-19T11:59:10;5.00;;;3.20;;
78122;SDS011;67376;44.802;10.332;2023-05-19T12:01:35;5.53;;;2.70;;
78122;SDS011;67376;44.802;10.332;2023-05-19T12:04:01;6.18;;;2.88;;
78122;SDS011;67376;44.802;10.332;2023-05-19T12:06:32;6.03;;;2.97;;
78122;SDS011;67376;44.802;10.332;2023-05-19T12:08:58;3.83;;;2.60;;
78122;SDS011;67376;44.802;10.332;2023-05-19T12:11:24;5.53;;;3.00;;
78122;SDS011;67376;44.802;10.332;2023-05-19T12:13:51;5.28;;;3.10;;
78122;SDS011;67376;44.802;10.332;2023-05-19T12:16:22;6.32;;;2.78;;
78122;SDS011;67376;44.802;10.332;2023-05-19T12:18:47;4.40;;;3.03;;
78122;SDS011;67376;44.802;10.332;2023-05-19T12:21:13;5.93;;;3.03;;
78122;SDS011;67376;44.802;10.332;2023-05-19T12:23:39;11.35;;;3.35;;
78122;SDS011;67376;44.802;10.332;2023-05-19T12:26:05;6.03;;;2.90;;
78122;SDS011;67376;44.802;10.332;2023-05-19T12:28:31;3.22;;;2.70;;
78122;SDS011;67376;44.802;10.332;2023-05-19T12:30:57;7.10;;;3.05;;
78122;SDS011;67376;44.802;10.332;2023-05-19T12:33:23;4.82;;;2.58;;
78122;SDS011;67376;44.802;10.332;2023-05-19T12:35:48;6.10;;;3.15;;
78122;SDS011;67376;44.802;10.332;2023-05-19T12:38:14;3.90;;;2.78;;
78122;SDS011;67376;44.802;10.332;2023-05-19T12:40:40;4.93;;;2.95;;
78122;SDS011;67376;44.802;10.332;2023-05-19T12:43:06;5.40;;;2.72;;
78122;SDS011;67376;44.802;10.332;2023-05-19T12:45:36;3.63;;;2.60;;
78122;SDS011;67376;44.802;10.332;2023-05-19T12:48:10;6.13;;;2.90;;
78122;SDS011;67376;44.802;10.332;2023-05-19T12:50:36;5.20;;;2.90;;
78122;SDS011;67376;44.802;10.332;2023-05-19T12:53:01;7.22;;;3.38;;
78122;SDS011;67376;44.802;10.332;2023-05-19T12:55:27;4.53;;;3.00;;
78122;SDS011;67376;44.802;10.332;2023-05-19T12:57:52;5.53;;;2.95;;
78122;SDS011;67376;44.802;10.332;2023-05-19T13:00:22;4.97;;;2.92;;
78122;SDS011;67376;44.802;10.332;2023-05-19T13:03:03;2.97;;;2.20;;
78122;SDS011;67376;44.802;10.332;2023-05-19T13:05:30;5.30;;;2.45;;
78122;SDS011;67376;44.802;10.332;2023-05-19T13:08:03;5.90;;;2.65;;
78122;SDS011;67376;44.802;10.332;2023-05-19T13:10:33;4.47;;;2.50;;
78122;SDS011;67376;44.802;10.332;2023-05-19T13:13:00;4.88;;;2.45;;
78122;SDS011;67376;44.802;10.332;2023-05-19T13:15:30;4.80;;;2.50;;
78122;SDS011;67376;44.802;10.332;2023-05-19T13:18:00;6.20;;;2.60;;
78122;SDS011;67376;44.802;10.332;2023-05-19T13:20:27;5.50;;;2.65;;
78122;SDS011;67376;44.802;10.332;2023-05-19T13:22:53;5.90;;;2.45;;
78122;SDS011;67376;44.802;10.332;2023-05-19T13:25:18;4.05;;;2.45;;
78122;SDS011;67376;44.802;10.332;2023-05-19T13:27:45;4.65;;;2.67;;
78122;SDS011;67376;44.802;10.332;2023-05-19T13:30:11;3.45;;;2.58;;
78122;SDS011;67376;44.802;10.332;2023-05-19T13:32:37;6.30;;;2.70;;
78122;SDS011;67376;44.802;10.332;2023-05-19T13:35:02;5.93;;;2.80;;
78122;SDS011;67376;44.802;10.332;2023-05-19T13:37:28;4.80;;;2.60;;
78122;SDS011;67376;44.802;10.332;2023-05-19T13:39:54;4.85;;;2.47;;
78122;SDS011;67376;44.802;10.332;2023-05-19T13:42:19;6.00;;;2.60;;
78122;SDS011;67376;44.802;10.332;2023-05-19T13:44:45;4.82;;;2.75;;
78122;SDS011;67376;44.802;10.332;2023-05-19T13:47:11;6.65;;;2.60;;
78122;SDS011;67376;44.802;10.332;2023-05-19T13:49:36;5.30;;;2.40;;
78122;SDS011;67376;44.802;10.332;2023-05-19T13:52:02;3.63;;;2.50;;
78122;SDS011;67376;44.802;10.332;2023-05-19T13:54:28;6.55;;;2.60;;
78122;SDS011;67376;44.802;10.332;2023-05-19T13:56:53;2.90;;;2.40;;
78122;SDS011;67376;44.802;10.332;2023-05-19T13:59:19;3.60;;;2.10;;
78122;SDS011;67376;44.802;10.332;2023-05-19T14:01:47;4.82;;;2.20;;
78122;SDS011;67376;44.802;10.332;2023-05-19T14:04:12;3.85;;;2.50;;
78122;SDS011;67376;44.802;10.332;2023-05-19T14:06:40;3.42;;;2.33;;
78122;SDS011;67376;44.802;10.332;2023-05-19T14:09:05;3.50;;;2.55;;
78122;SDS011;67376;44.802;10.332;2023-05-19T14:11:30;4.15;;;2.30;;
78122;SDS011;67376;44.802;10.332;2023-05-19T14:13:56;2.60;;;2.08;;
78122;SDS011;67376;44.802;10.332;2023-05-19T14:16:21;2.50;;;2.08;;
78122;SDS011;67376;44.802;10.332;2023-05-19T14:18:47;5.00;;;2.65;;
78122;SDS011;67376;44.802;10.332;2023-05-19T14:21:12;3.15;;;1.90;;
78122;SDS011;67376;44.802;10.332;2023-05-19T14:23:38;3.40;;;2.20;;
78122;SDS011;67376;44.802;10.332;2023-05-19T14:26:04;2.75;;;2.17;;
78122;SDS011;67376;44.802;10.332;2023-05-19T14:28:29;3.25;;;2.25;;
78122;SDS011;67376;44.802;10.332;2023-05-19T14:30:55;3.53;;;2.30;;
78122;SDS011;67376;44.802;10.332;2023-05-19T14:33:20;3.35;;;2.10;;
78122;SDS011;67376;44.802;10.332;2023-05-19T14:35:45;4.38;;;2.83;;
78122;SDS011;67376;44.802;10.332;2023-05-19T14:38:11;3.95;;;2.40;;
78122;SDS011;67376;44.802;10.332;2023-05-19T14:40:37;3.58;;;2.22;;
78122;SDS011;67376;44.802;10.332;2023-05-19T14:43:05;2.65;;;1.90;;
78122;SDS011;67376;44.802;10.332;2023-05-19T14:47:59;3.35;;;2.35;;
78122;SDS011;67376;44.802;10.332;2023-05-19T14:50:25;3.20;;;2.08;;
78122;SDS011;67376;44.802;10.332;2023-05-19T14:52:51;4.10;;;2.03;;
78122;SDS011;67376;44.802;10.332;2023-05-19T14:55:16;2.78;;;1.90;;
78122;SDS011;67376;44.802;10.332;2023-05-19T14:57:42;3.22;;;2.47;;
78122;SDS011;67376;44.802;10.332;2023-05-19T15:00:07;4.68;;;2.30;;